Home > Products > Valid Products > TAF

000
FTUS44 KLZK 221800 AAA
TAFPBF
TAF AMD
KPBF 221815Z 2218/2318 01011G18KT P6SM SKC
     FM230000 03003KT P6SM SKC
     FM231200 01003KT P6SM SKC=



000
FTUS44 KLZK 221700
TAFPBF
TAF
KPBF 221734Z 2218/2318 05012KT P6SM SKC
     FM230000 03003KT P6SM SKC
     FM231200 01003KT P6SM SKC=



000
FTUS44 KLZK 221700
TAFLIT
TAF
KLIT 221734Z 2218/2318 03011KT P6SM SKC
     FM230000 04003KT P6SM SKC
     FM231200 07008KT P6SM SKC=



000
FTUS44 KLZK 221700
TAFHOT
TAF
KHOT 221734Z 2218/2318 06010KT P6SM SKC
     FM230000 07003KT P6SM SKC
     FM231200 08005KT P6SM SKC=



000
FTUS44 KLZK 221700
TAFHRO
TAF
KHRO 221734Z 2218/2318 05008KT P6SM SKC
     FM230000 VRB03KT P6SM SKC
     FM231200 13006KT P6SM SKC=



000
FTUS44 KLZK 221100
TAFLIT
TAF
KLIT 221120Z 2212/2312 36007KT P6SM SCT250
     FM221400 04008G15KT P6SM SKC
     FM230000 04003KT P6SM SKC=



000
FTUS44 KLZK 221100
TAFHOT
TAF
KHOT 221120Z 2212/2312 VRB03KT P6SM SKC
     FM221400 06008KT P6SM SKC
     FM230000 07003KT P6SM SKC=



000
FTUS44 KLZK 221100
TAFHRO
TAF
KHRO 221120Z 2212/2312 VRB04KT P6SM SKC
     FM221400 06008KT P6SM SKC
     FM230000 VRB03KT P6SM SKC=



000
FTUS44 KLZK 221100
TAFPBF
TAF
KPBF 221120Z 2212/2312 36007KT P6SM SCT080 SCT250
     FM221400 03008G15KT P6SM SKC
     FM230000 03003KT P6SM SKC=



000
FTUS44 KLZK 220500
TAFHOT
TAF
KHOT 220520Z 2206/2306 03009KT P6SM SKC
     FM221400 06008KT P6SM SKC
     FM230000 00000KT P6SM SKC=



000
FTUS44 KLZK 220500
TAFHRO
TAF
KHRO 220520Z 2206/2306 32004KT P6SM SKC
     FM221400 06008KT P6SM SKC
     FM230000 00000KT P6SM SKC=



000
FTUS44 KLZK 220500
TAFPBF
TAF
KPBF 220520Z 2206/2306 36007KT P6SM SCT080 SCT250
     FM221400 03008G15KT P6SM SKC
     FM230000 00000KT P6SM SKC=



000
FTUS44 KLZK 220500
TAFLIT
TAF
KLIT 220520Z 2206/2306 36007KT P6SM SCT250
     FM221400 04008G15KT P6SM SKC
     FM230000 00000KT P6SM SKC=



000
FTUS44 KLZK 220300 AAA
TAFPBF
TAF AMD
KPBF 220311Z 2203/2224 36007KT P6SM SCT080 SCT250
      TEMPO 2203/2206 BKN080
     FM221400 03009G16KT P6SM SKC=



000
FTUS44 KLZK 212300
TAFLIT
TAF
KLIT 212340Z 2200/2224 34009KT P6SM FEW050 SCT100
     FM220200 36007KT P6SM SCT250
     FM221400 04009G16KT P6SM SKC=



000
FTUS44 KLZK 212300
TAFHRO
TAF
KHRO 212340Z 2200/2224 33004KT P6SM SKC
     FM221400 06008KT P6SM SKC=



000
FTUS44 KLZK 212300
TAFPBF
TAF
KPBF 212340Z 2200/2224 33009KT P6SM FEW050 SCT100
     FM220200 01007KT P6SM SCT250
     FM221400 03009G16KT P6SM SKC=



000
FTUS44 KLZK 212300
TAFHOT
TAF
KHOT 212340Z 2200/2224 34005KT P6SM FEW050 SCT100
     FM220200 03005KT P6SM SCT250
     FM221400 06008KT P6SM SKC=



000
FTUS44 KLZK 212200 AAA
TAFPBF
TAF AMD
KPBF 212205Z 2122/2218 32009G16KT P6SM SCT100 BKN250
     FM220200 01007KT P6SM SCT250
     FM221400 03009G16KT P6SM SKC=



000
FTUS44 KLZK 212000 AAA
TAFHRO
TAF AMD
KHRO 212051Z 2121/2218 34009KT P6SM SKC
     FM220100 33005KT P6SM SKC
     FM221400 05007KT P6SM SKC=



000
FTUS44 KLZK 212000 AAB
TAFLIT
TAF AMD
KLIT 212050Z 2121/2218 31009G16KT P6SM SCT050 BKN100
     FM212300 32009G16KT P6SM SCT100 BKN250
     FM220200 36007KT P6SM SCT250
     FM221400 03009KT P6SM SKC=



000
FTUS44 KLZK 212000 AAA
TAFHOT
TAF AMD
KHOT 212049Z 2121/2218 33008KT P6SM SCT050 BKN100
     FM212300 34008KT P6SM SCT100 BKN250
     FM220200 02005KT P6SM SCT250
     FM221400 06008KT P6SM SKC=



000
FTUS44 KLZK 212000 AAA
TAFLIT
TAF AMD
KLIT 212048Z 2121/2218 31009G16KT P6SM SCT050 BKN100
     FM212300 32009G16KT P6SM SCT100 BKN250
     FM220200 36007KT P6SM SCT250
     FM220600 02005KT P6SM SKC=



000
FTUS44 KLZK 211700
TAFHOT
TAF
KHOT 211728Z 2118/2218 31007KT P6SM VCSH BKN050 OVC100
     FM212300 33008KT P6SM VCSH BKN050 BKN100
     FM220200 36005KT P6SM SCT100
     FM220600 02005KT P6SM SKC=



000
FTUS44 KLZK 211700
TAFHRO
TAF
KHRO 211728Z 2118/2218 34009KT P6SM SCT035 BKN100
     FM220100 34006KT P6SM SKC
     FM221300 36007KT P6SM SKC=



000
FTUS44 KLZK 211700
TAFPBF
TAF
KPBF 211728Z 2118/2218 30007KT P6SM SCT050
     FM212000 32008KT P6SM VCSH BKN050 OVC100
     FM220000 33007KT P6SM VCSH BKN050 BKN100
     FM220300 36005KT P6SM SCT100
     FM220600 36005KT P6SM SKC=



000
FTUS44 KLZK 211700
TAFLIT
TAF
KLIT 211728Z 2118/2218 30008KT P6SM VCSH BKN050 OVC100
     FM212300 33008KT P6SM VCSH BKN050 BKN100
     FM220300 36005KT P6SM SCT100
     FM220600 02005KT P6SM SKC=



000
FTUS44 KLZK 211600 AAB
TAFHOT
TAF AMD
KHOT 211651Z 2117/2212 27009KT P6SM VCSH SCT050
     FM211800 31007KT P6SM VCSH BKN050 OVC100
     FM212200 33009KT P6SM VCSH BKN050 BKN100
     FM220100 01005KT P6SM SKC=



000
FTUS44 KLZK 211600 AAB
TAFLIT
TAF AMD
KLIT 211612Z 2116/2212 30005KT P6SM SCT050 SCT250
     FM211700 32008KT P6SM VCSH BKN050 OVC100
     FM220000 01005KT P6SM SKC=



000
FTUS44 KLZK 211500 AAA
TAFHRO
TAF AMD
KHRO 211505Z 2115/2212 32009KT P6SM SCT035 BKN100
      TEMPO 2115/2117 BKN015
     FM220000 34003KT P6SM SKC=



000
FTUS44 KLZK 211400 AAA
TAFLIT
TAF AMD
KLIT 211408Z 2114/2212 25005KT P6SM SCT050 SCT250
     FM211700 30008KT P6SM VCTS BKN035CB OVC100
     FM212000 33009KT P6SM VCSH BKN050 BKN100
     FM220000 01005KT P6SM SKC=



000
FTUS44 KLZK 211300 AAA
TAFHOT
TAF AMD
KHOT 211326Z 2113/2212 VRB03KT P6SM FEW010 SCT050
     FM211600 30009KT P6SM VCTS BKN035CB OVC100
     FM211900 33009KT P6SM VCSH BKN050 BKN100
     FM220000 01005KT P6SM SKC=



000
FTUS44 KLZK 211100 CCA
TAFHOT
TAF COR
KHOT 211151Z 2112/2212 VRB03KT P6SM SCT050
      TEMPO 2112/2114 2SM BR BKN001
     FM211500 33010KT P6SM VCTS SCT035CB BKN100
     FM220000 01005KT P6SM SKC=



000
FTUS44 KLZK 211100
TAFHOT
TAF
KHOT 211123Z 2112/2212 VRB03KT P6SM SCT050
      TEMPO 2112/2114 2SM BR BKN005
     FM211500 33010KT P6SM VCTS SCT035CB BKN100
     FM220000 01005KT P6SM SKC=



000
FTUS44 KLZK 211100
TAFPBF
TAF
KPBF 211123Z 2112/2212 00000KT P6SM SCT250
      TEMPO 2112/2114 5SM BR
     FM211700 33010KT P6SM SCT050 SCT100
     FM220200 01007KT P6SM SKC=



000
FTUS44 KLZK 211100
TAFLIT
TAF
KLIT 211123Z 2112/2212 VRB03KT P6SM SCT050
      TEMPO 2112/2114 5SM BR
     FM211500 33010KT P6SM SCT035 BKN100
     FM220000 01005KT P6SM SKC=



000
FTUS44 KLZK 211100
TAFHRO
TAF
KHRO 211123Z 2112/2212 28005KT P6SM VCSH SCT050 BKN100
     FM211300 32009KT P6SM SCT035 BKN100
     FM220000 34003KT P6SM SKC=



000
FTUS44 KLZK 211000 AAA
TAFHOT
TAF AMD
KHOT 211039Z 2111/2206 00000KT P6SM SCT250
      TEMPO 2111/2114 2SM BR
     FM211600 33006KT P6SM SCT050 SCT250
     FM220000 32003KT P6SM SKC=



000
FTUS44 KLZK 211000 AAA
TAFHRO
TAF AMD
KHRO 211014Z 2110/2206 VRB03KT P6SM VCSH SCT250
      TEMPO 2110/2114 5SM SHRA BR
     FM211400 32008KT P6SM SCT050 SCT250
     FM220000 32003KT P6SM SKC=



000
FTUS44 KLZK 210500
TAFPBF
TAF
KPBF 210520Z 2106/2206 00000KT P6SM SCT250
      TEMPO 2110/2114 5SM BR
     FM211700 33007KT P6SM SCT050 SCT250
     FM220200 35007KT P6SM SKC=



000
FTUS44 KLZK 210500
TAFHRO
TAF
KHRO 210520Z 2106/2206 VRB03KT P6SM SCT250
      TEMPO 2110/2114 5SM BR
     FM211400 32008KT P6SM SCT050 SCT250
     FM220000 32003KT P6SM SKC=



000
FTUS44 KLZK 210500
TAFLIT
TAF
KLIT 210520Z 2106/2206 00000KT P6SM SCT250
      TEMPO 2110/2114 5SM BR
     FM211500 33007KT P6SM SCT050 SCT250
     FM220000 32003KT P6SM SKC=



000
FTUS44 KLZK 210500
TAFHOT
TAF
KHOT 210520Z 2106/2206 00000KT P6SM SCT250
      TEMPO 2110/2114 5SM BR
     FM211600 33006KT P6SM SCT050 SCT250
     FM220000 32003KT P6SM SKC=



000
FTUS44 KLZK 202300
TAFLIT
TAF
KLIT 202337Z 2100/2124 00000KT P6SM SCT250
      TEMPO 2110/2114 5SM BR
     FM211500 33007KT P6SM SCT050 SCT250=



000
FTUS44 KLZK 202300
TAFHOT
TAF
KHOT 202337Z 2100/2124 00000KT P6SM SCT250
      TEMPO 2110/2114 5SM BR
     FM211500 33005KT P6SM SCT050 SCT250=



000
FTUS44 KLZK 202300
TAFPBF
TAF
KPBF 202337Z 2100/2124 00000KT P6SM SCT250
      TEMPO 2110/2114 5SM BR
     FM211500 33007KT P6SM SCT050 SCT250=



000
FTUS44 KLZK 202300
TAFHRO
TAF
KHRO 202337Z 2100/2124 VRB03KT P6SM SCT250
      TEMPO 2110/2114 5SM BR
     FM211500 32008KT P6SM SCT050 SCT250=



000
FTUS44 KLZK 201700
TAFPBF
TAF
KPBF 201733Z 2018/2118 15005KT P6SM SCT040
     FM202000 17007KT P6SM BKN045
     FM210100 19005KT P6SM FEW040 SCT250
     FM211000 23005KT P6SM VCSH SCT050 SCT100 BKN250
      TEMPO 2110/2113 3SM BR SCT005
     FM211500 27007KT P6SM VCTS SCT050CB OVC150=



000
FTUS44 KLZK 201700
TAFLIT
TAF
KLIT 201733Z 2018/2118 16005KT P6SM SCT040
     FM202000 18007KT P6SM BKN045
     FM210100 22005KT P6SM FEW040 SCT250
     FM211000 24005KT P6SM VCSH SCT050 SCT100 BKN250
      TEMPO 2110/2113 3SM BR SCT005
     FM211500 27007KT P6SM VCTS SCT050CB OVC150=



000
FTUS44 KLZK 201700
TAFHRO
TAF
KHRO 201733Z 2018/2118 22008KT P6SM BKN045
     FM210100 23005KT P6SM FEW040 SCT250
     FM211000 25005KT P6SM VCSH SCT050 SCT100 BKN250
      TEMPO 2110/2113 3SM BR SCT005
     FM211300 27007KT P6SM VCTS SCT050CB OVC150=



000
FTUS44 KLZK 201700
TAFHOT
TAF
KHOT 201733Z 2018/2118 22006KT P6SM SCT040
     FM202000 22007KT P6SM BKN045
     FM210100 22005KT P6SM FEW040 SCT250
     FM211000 24005KT P6SM VCSH SCT050 SCT100 BKN250
      TEMPO 2110/2113 3SM BR SCT005
     FM211500 27007KT P6SM VCTS SCT050CB OVC150=



000
FTUS44 KLZK 201400 AAA
TAFHRO
TAF AMD
KHRO 201427Z 2014/2112 15005KT P6SM SCT040
     FM201700 20006KT P6SM SCT040
     FM210000 23004KT P6SM SKC
     FM210900 29005KT P6SM FEW120 SCT250
      TEMPO 2109/2112 3SM BR SCT005=



000
FTUS44 KLZK 201300 AAA
TAFHOT
TAF AMD
KHOT 201332Z 2014/2112 00000KT 6SM BR SCT002
     FM201500 15005KT P6SM FEW040
     FM201800 17005KT P6SM SCT040
     FM210000 VRB03KT P6SM SKC
      TEMPO 2109/2112 3SM BR SCT005=



000
FTUS44 KLZK 201100
TAFPBF
TAF
KPBF 201139Z 2012/2112 00000KT 6SM BR SKC
      TEMPO 2012/2014 3SM BR
     FM201500 15005KT P6SM SCT040
     FM210000 VRB03KT P6SM SKC=



000
FTUS44 KLZK 201100
TAFHOT
TAF
KHOT 201139Z 2012/2112 00000KT 1/4SM FG VV001
      TEMPO 2012/2014 2SM BR SCT005
     FM201500 16005KT P6SM SCT040
     FM210000 VRB03KT P6SM SKC=



000
FTUS44 KLZK 201100
TAFHRO
TAF
KHRO 201139Z 2012/2112 VRB03KT 4SM BR SKC
      TEMPO 2012/2014 2SM BR SCT005
     FM201500 20006KT P6SM SCT040
     FM210000 23004KT P6SM SKC
     FM210900 29005KT P6SM FEW120 SCT250=



000
FTUS44 KLZK 201100
TAFLIT
TAF
KLIT 201139Z 2012/2112 00000KT P6SM SKC
      TEMPO 2012/2014 4SM BR
     FM201400 16005KT P6SM SCT040
     FM210000 VRB03KT P6SM SKC=



000
FTUS44 KLZK 201000 AAB
TAFHOT
TAF AMD
KHOT 201000Z 2010/2106 00000KT 1/4SM FG VV001
      TEMPO 2010/2014 2SM BR BKN005
     FM201400 15005KT P6SM SCT045
     FM210000 VRB03KT P6SM SKC=



000
FTUS44 KLZK 200900 AAA
TAFHOT
TAF AMD
KHOT 200922Z 2009/2106 VRB02KT 2SM BR SCT005
      TEMPO 2010/2014 1/2SM FG BKN005
     FM201400 15005KT P6SM SCT045
     FM210000 VRB03KT P6SM SKC=



000
FTUS44 KLZK 200500
TAFHRO
TAF
KHRO 200530Z 2006/2106 14003KT 5SM BR SKC
     FM201000 14003KT 4SM BR SCT005
      TEMPO 2010/2013 2SM BR BKN005
     FM201400 19006KT P6SM SCT040
     FM210000 VRB03KT P6SM SKC=



000
FTUS44 KLZK 200500
TAFLIT
TAF
KLIT 200530Z 2006/2106 00000KT P6SM SKC
     FM201000 00000KT 6SM BR SKC
      TEMPO 2010/2013 4SM BR
     FM201400 16005KT P6SM SCT045
     FM210000 VRB03KT P6SM SKC=



000
FTUS44 KLZK 200500
TAFHOT
TAF
KHOT 200530Z 2006/2106 00000KT P6SM SKC
     FM201000 09003KT 6SM BR SKC
      TEMPO 2010/2013 4SM BR
     FM201400 15005KT P6SM SCT045
     FM210000 VRB03KT P6SM SKC=



000
FTUS44 KLZK 200500
TAFPBF
TAF
KPBF 200530Z 2006/2106 00000KT P6SM SKC
     FM201000 00000KT 5SM BR SKC
      TEMPO 2010/2013 2SM BR
     FM201400 15005KT P6SM SCT045
     FM210000 VRB03KT P6SM SKC=



000
FTUS44 KLZK 192300
TAFLIT
TAF
KLIT 192340Z 2000/2024 00000KT P6SM SKC
     FM201000 00000KT 6SM BR SCT250
      TEMPO 2010/2013 4SM BR
     FM201400 16005KT P6SM SCT045 SCT250=



000
FTUS44 KLZK 192300
TAFHRO
TAF
KHRO 192340Z 2000/2024 14003KT P6SM SKC
     FM201000 14003KT 5SM BR SCT005 SCT250
      TEMPO 2010/2013 2SM BR BKN005
     FM201400 19006KT P6SM SCT040 SCT250=



000
FTUS44 KLZK 192300
TAFHOT
TAF
KHOT 192340Z 2000/2024 09003KT P6SM SKC
     FM201000 09003KT 6SM BR SCT250
      TEMPO 2010/2013 4SM BR
     FM201400 15005KT P6SM SCT045 SCT250=



000
FTUS44 KLZK 192300
TAFPBF
TAF
KPBF 192340Z 2000/2024 00000KT P6SM SKC
     FM201000 00000KT 5SM BR SCT250
      TEMPO 2010/2013 2SM BR
     FM201400 15005KT P6SM SCT045 SCT250=



000
FTUS44 KLZK 191900 AAA
TAFHRO
TAF AMD
KHRO 191900Z 1919/2018 15005KT P6SM SCT020
     FM192100 16007KT P6SM BKN035
     FM200000 15003KT P6SM SCT250
     FM200900 15002KT 5SM BR FEW005 SCT250
      TEMPO 2009/2012 2SM BR BKN005
     FM201400 15005KT P6SM OVC015
     FM201600 16007KT P6SM SCT035=



    US Dept of Commerce
    National Oceanic and Atmospheric Administration
    National Weather Service
    1325 East West Highway
    Silver Spring, MD 20910
    Page Author: NWS Internet Services Team
Disclaimer
Information Quality
Credits
Glossary
Privacy Policy
Freedom of Information Act (FOIA)
About Us
Career Opportunities